Nizhnevartovsk, Russia
Current Conditions -  °F | °C
As of 1:00 PM on Wednesday 22 Oct 2014 (Local Time) from USNN Reporting Station
Light Snow Light Snow  
Wind Chill: -6°   Ceiling: Unl
Heat Index:   Visibility: 6mi
Dew Point:   Wind: 11mph
Humidity: 73%   Direction: 220°SW
Pressure: 29.83"   Gusts: 18mph
Location:  60.93°N, 76.57°E
Report Text: USNN 220800Z 22005G08MPS 9999 -SN SCT021 M13/M17 Q1010 NOSIGRMK QFE752 21410262
Loading
Personal Weather Stations






























Interactive Weather Map
Tropical Storm Tracking
New forecast layout! Learn more

10-Day Weather Forecast

Advertisements
Track Severe Weather on mobile